createdAt,value
2023-03-22T00:00:59.560Z,10.2
2023-03-22T00:02:00.459Z,10.3
2023-03-22T00:03:01.448Z,10.2
2023-03-22T00:04:02.526Z,10.2
2023-03-22T00:05:03.440Z,10.1
2023-03-22T00:06:04.505Z,10.1
2023-03-22T00:07:05.422Z,10
2023-03-22T00:08:06.460Z,10
2023-03-22T00:09:07.438Z,9.9
2023-03-22T00:10:08.457Z,9.9
2023-03-22T00:11:09.499Z,9.9
2023-03-22T00:12:10.492Z,9.9
2023-03-22T00:13:11.459Z,10
2023-03-22T00:14:12.417Z,10
2023-03-22T00:15:13.465Z,10
2023-03-22T00:16:14.563Z,10.1
2023-03-22T00:17:15.463Z,10.1
2023-03-22T00:18:16.442Z,10.2
2023-03-22T00:19:17.535Z,10.3
2023-03-22T00:20:20.676Z,10.2
2023-03-22T00:21:19.479Z,10.2
2023-03-22T00:22:20.429Z,10.1
2023-03-22T00:23:21.424Z,10.1
2023-03-22T00:24:22.458Z,10.1
2023-03-22T00:25:23.485Z,10.1
2023-03-22T00:26:24.476Z,10.1
2023-03-22T00:27:25.431Z,10.1
2023-03-22T00:28:26.428Z,10
2023-03-22T00:29:27.458Z,10
2023-03-22T00:30:28.462Z,10
2023-03-22T00:31:29.533Z,9.9
2023-03-22T00:32:30.452Z,9.9
2023-03-22T00:33:31.475Z,9.8
2023-03-22T00:34:32.523Z,9.7
2023-03-22T00:35:33.519Z,9.6
2023-03-22T00:36:34.473Z,9.4
2023-03-22T00:37:35.484Z,9.3
2023-03-22T00:38:42.299Z,9.3
2023-03-22T00:39:37.542Z,9.2
2023-03-22T00:40:38.756Z,9.2
2023-03-22T00:41:39.483Z,9.3
2023-03-22T00:42:40.470Z,9.4
2023-03-22T00:43:41.450Z,9.5
2023-03-22T00:44:42.455Z,9.5
2023-03-22T00:45:43.531Z,9.5
2023-03-22T00:46:44.502Z,9.6
2023-03-22T00:47:45.501Z,9.7
2023-03-22T00:48:46.471Z,9.7
2023-03-22T00:49:47.585Z,9.7
2023-03-22T00:50:48.464Z,9.8
2023-03-22T00:51:49.484Z,9.9
2023-03-22T00:52:50.471Z,10
2023-03-22T00:53:51.780Z,10.1
2023-03-22T00:54:53.570Z,10
2023-03-22T00:55:54.460Z,10
2023-03-22T00:56:55.492Z,9.9
2023-03-22T00:57:56.540Z,9.9
2023-03-22T00:58:57.569Z,9.8
2023-03-22T00:59:58.488Z,9.8
2023-03-22T01:00:59.520Z,9.8
2023-03-22T01:02:00.524Z,9.8
2023-03-22T01:03:01.481Z,9.9
2023-03-22T01:04:02.479Z,9.9
2023-03-22T01:05:03.488Z,9.8
2023-03-22T01:06:04.479Z,9.8
2023-03-22T01:07:05.529Z,9.7
2023-03-22T01:08:06.494Z,9.6
2023-03-22T01:09:07.507Z,9.7
2023-03-22T01:10:08.526Z,9.7
2023-03-22T01:11:09.667Z,9.8
2023-03-22T01:12:10.464Z,9.8
2023-03-22T01:13:11.485Z,9.8
2023-03-22T01:14:12.498Z,9.9
2023-03-22T01:15:13.496Z,10
2023-03-22T01:16:14.710Z,10.1
2023-03-22T01:17:15.545Z,10.1
2023-03-22T01:18:16.459Z,10.1
2023-03-22T01:19:17.478Z,10.2
2023-03-22T01:20:18.459Z,10.3
2023-03-22T01:21:19.499Z,10.3
2023-03-22T01:22:20.559Z,10.3
2023-03-22T01:23:21.465Z,10.2
2023-03-22T01:24:22.496Z,10.2
2023-03-22T01:25:23.510Z,10.2
2023-03-22T01:26:24.523Z,10.3
2023-03-22T01:27:25.562Z,10.3
2023-03-22T01:28:27.224Z,10.3
2023-03-22T01:29:27.506Z,10.3
2023-03-22T01:30:28.544Z,10.4
2023-03-22T01:31:29.461Z,10.4
2023-03-22T01:32:30.495Z,10.4
2023-03-22T01:33:31.553Z,10.5
2023-03-22T01:34:32.556Z,10.4
2023-03-22T01:35:33.552Z,10.4
2023-03-22T01:36:34.517Z,10.5
2023-03-22T01:37:35.526Z,10.6
2023-03-22T01:38:36.511Z,10.5
2023-03-22T01:39:37.486Z,10.5
2023-03-22T01:40:38.880Z,10.4
2023-03-22T01:41:39.479Z,10.4
2023-03-22T01:42:40.528Z,10.4
2023-03-22T01:43:41.450Z,10.4
2023-03-22T01:44:42.503Z,10.4
2023-03-22T01:45:43.562Z,10.4
2023-03-22T01:46:44.501Z,10.3
2023-03-22T01:47:45.506Z,10.2
2023-03-22T01:48:46.605Z,10.1
2023-03-22T01:49:47.488Z,10
2023-03-22T01:50:48.501Z,10
2023-03-22T01:51:49.487Z,10
2023-03-22T01:52:50.527Z,10.1
2023-03-22T01:53:51.487Z,10.1
2023-03-22T01:54:52.605Z,10.2
2023-03-22T01:55:53.500Z,10.2
2023-03-22T01:56:54.485Z,10.3
2023-03-22T01:57:55.477Z,10.3
2023-03-22T01:58:56.514Z,10.4
2023-03-22T01:59:57.520Z,10.4
2023-03-22T02:00:58.499Z,10.4
2023-03-22T02:01:59.543Z,10.3
2023-03-22T02:03:00.581Z,10.3
2023-03-22T02:04:01.501Z,10.2
2023-03-22T02:05:02.500Z,10.2
2023-03-22T02:06:03.549Z,10.2
2023-03-22T02:07:04.571Z,10.2
2023-03-22T02:08:05.528Z,10.2
2023-03-22T02:09:06.536Z,10.2
2023-03-22T02:10:07.516Z,10.2
2023-03-22T02:11:08.543Z,10.2
2023-03-22T02:12:09.541Z,10.3
2023-03-22T02:13:10.481Z,10.3
2023-03-22T02:14:11.507Z,10.4
2023-03-22T02:15:12.532Z,10.4
2023-03-22T02:16:13.539Z,10.4
2023-03-22T02:17:14.504Z,10.5
2023-03-22T02:18:15.520Z,10.5
2023-03-22T02:19:16.522Z,10.5
2023-03-22T02:20:17.519Z,10.5
2023-03-22T02:21:18.504Z,10.5
2023-03-22T02:22:19.527Z,10.5
2023-03-22T02:23:20.583Z,10.5
2023-03-22T02:24:21.521Z,10.6
2023-03-22T02:25:22.489Z,10.5
2023-03-22T02:26:23.518Z,10.5
2023-03-22T02:27:24.500Z,10.4
2023-03-22T02:28:25.580Z,10.4
2023-03-22T02:29:26.506Z,10.4
2023-03-22T02:30:27.540Z,10.5
2023-03-22T02:31:28.568Z,10.4
2023-03-22T02:32:29.499Z,10.3
2023-03-22T02:33:30.566Z,10.3
2023-03-22T02:34:31.567Z,10.3
2023-03-22T02:35:32.622Z,10.3
2023-03-22T02:36:33.519Z,10.4
2023-03-22T02:37:34.526Z,10.4
2023-03-22T02:38:35.563Z,10.5
2023-03-22T02:39:36.549Z,10.4
2023-03-22T02:40:37.783Z,10.3
2023-03-22T02:41:38.625Z,10.1
2023-03-22T02:42:39.559Z,10
2023-03-22T02:43:40.505Z,10
2023-03-22T02:44:41.644Z,9.9
2023-03-22T02:45:42.538Z,9.9
2023-03-22T02:46:43.684Z,9.8
2023-03-22T02:47:44.582Z,9.9
2023-03-22T02:48:45.619Z,10
2023-03-22T02:49:46.539Z,10.1
2023-03-22T02:50:47.465Z,10.1
2023-03-22T02:51:48.562Z,10.2
2023-03-22T02:52:49.637Z,10.2
2023-03-22T02:53:50.554Z,10.3
2023-03-22T02:54:51.554Z,10.3
2023-03-22T02:55:52.678Z,10.5
2023-03-22T02:56:53.546Z,10.6
2023-03-22T02:57:54.537Z,10.6
2023-03-22T02:58:55.877Z,10.6
2023-03-22T02:59:56.531Z,10.6
2023-03-22T03:00:57.599Z,10.6
2023-03-22T03:01:58.614Z,10.6
2023-03-22T03:02:59.512Z,10.6
2023-03-22T03:04:00.540Z,10.4
2023-03-22T03:05:01.538Z,10.4
2023-03-22T03:06:02.585Z,10.4
2023-03-22T03:07:03.538Z,10.4
2023-03-22T03:08:04.546Z,10.4
2023-03-22T03:09:05.612Z,10.5
2023-03-22T03:10:06.565Z,10.5
2023-03-22T03:11:07.539Z,10.5
2023-03-22T03:12:08.546Z,10.5
2023-03-22T03:13:09.517Z,10.5
2023-03-22T03:14:10.646Z,10.4
2023-03-22T03:15:11.564Z,10.3
2023-03-22T03:16:12.629Z,10.2
2023-03-22T03:17:13.558Z,10.3
2023-03-22T03:18:14.546Z,10.3
2023-03-22T03:19:15.558Z,10.3
2023-03-22T03:20:16.597Z,10.4
2023-03-22T03:21:17.588Z,10.4
2023-03-22T03:22:18.526Z,10.4
2023-03-22T03:23:19.512Z,10.5
2023-03-22T03:24:20.611Z,10.5
2023-03-22T03:25:21.598Z,10.4
2023-03-22T03:26:22.547Z,10.4
2023-03-22T03:27:23.560Z,10.5
2023-03-22T03:28:24.578Z,10.5
2023-03-22T03:29:25.538Z,10.4
2023-03-22T03:30:26.585Z,10.4
2023-03-22T03:31:27.618Z,10.3
2023-03-22T03:32:28.543Z,10.3
2023-03-22T03:33:29.539Z,10.2
2023-03-22T03:34:30.538Z,10.2
2023-03-22T03:35:31.510Z,10.3
2023-03-22T03:36:32.626Z,10.5
2023-03-22T03:37:33.562Z,10.4
2023-03-22T03:38:34.470Z,9.9
2023-03-22T03:39:35.578Z,9.6
2023-03-22T03:40:36.542Z,9.7
2023-03-22T03:41:37.520Z,9.8
2023-03-22T03:42:38.507Z,9.8
2023-03-22T03:43:39.561Z,9.7
2023-03-22T03:44:40.559Z,9.6
2023-03-22T03:45:41.634Z,9.6
2023-03-22T03:46:42.566Z,9.7
2023-03-22T03:47:43.672Z,9.9
2023-03-22T03:48:44.560Z,10
2023-03-22T03:49:45.579Z,10.1
2023-03-22T03:50:46.629Z,10.2
2023-03-22T03:51:47.558Z,10.2
2023-03-22T03:52:48.549Z,10.2
2023-03-22T03:53:49.558Z,10.3
2023-03-22T03:54:50.604Z,10.3
2023-03-22T03:55:51.581Z,10.4
2023-03-22T03:56:52.820Z,10.4
2023-03-22T03:57:53.557Z,10.4
2023-03-22T03:58:54.539Z,10.3
2023-03-22T03:59:55.560Z,10.3
2023-03-22T04:00:56.560Z,10.3
2023-03-22T04:01:57.673Z,10.3
2023-03-22T04:02:58.613Z,10.3
2023-03-22T04:03:59.601Z,10.3
2023-03-22T04:05:00.561Z,10.4
2023-03-22T04:06:01.590Z,10.4
2023-03-22T04:07:02.566Z,10.4
2023-03-22T04:08:03.586Z,10.4
2023-03-22T04:09:04.561Z,10.5
2023-03-22T04:10:05.565Z,10.5
2023-03-22T04:11:06.662Z,10.6
2023-03-22T04:12:07.531Z,10.6
2023-03-22T04:13:08.594Z,10.6
2023-03-22T04:14:09.572Z,10.6
2023-03-22T04:15:10.578Z,10.6
2023-03-22T04:16:12.134Z,10.6
2023-03-22T04:17:13.588Z,10.6
2023-03-22T04:18:14.561Z,10.6
2023-03-22T04:19:15.651Z,10.5
2023-03-22T04:20:16.562Z,10.5
2023-03-22T04:21:17.581Z,10.5
2023-03-22T04:22:18.619Z,10.6
2023-03-22T04:23:19.542Z,10.6
2023-03-22T04:24:20.582Z,10.6
2023-03-22T04:25:21.632Z,10.6
2023-03-22T04:26:23.350Z,10.6
2023-03-22T04:27:23.583Z,10.6
2023-03-22T04:28:24.662Z,10.6
2023-03-22T04:29:25.584Z,10.6
2023-03-22T04:30:26.576Z,10.6
2023-03-22T04:31:27.698Z,10.6
2023-03-22T04:32:28.586Z,10.6
2023-03-22T04:33:29.580Z,10.6
2023-03-22T04:34:30.601Z,10.5
2023-03-22T04:35:31.635Z,10.5
2023-03-22T04:36:32.660Z,10.6
2023-03-22T04:37:33.618Z,10.5
2023-03-22T04:38:34.644Z,10.5
2023-03-22T04:39:35.558Z,10.5
2023-03-22T04:40:36.701Z,10.6
2023-03-22T04:41:37.580Z,10.6
2023-03-22T04:42:38.563Z,10.6
2023-03-22T04:43:39.674Z,10.6
2023-03-22T04:44:40.604Z,10.6
2023-03-22T04:45:41.628Z,10.6
2023-03-22T04:46:42.656Z,10.6
2023-03-22T04:47:43.657Z,10.6
2023-03-22T04:48:44.732Z,10.6
2023-03-22T04:49:45.587Z,10.5
2023-03-22T04:50:46.583Z,10.5
2023-03-22T04:51:47.619Z,10.5
2023-03-22T04:52:48.598Z,10.5
2023-03-22T04:53:49.569Z,10.5
2023-03-22T04:54:50.587Z,10.5
2023-03-22T04:55:51.670Z,10.5
2023-03-22T04:56:52.910Z,10.4
2023-03-22T04:57:53.539Z,10.4
2023-03-22T04:58:54.597Z,10.4
2023-03-22T04:59:55.598Z,10.5
2023-03-22T05:00:56.659Z,10.5
2023-03-22T05:01:57.630Z,10.5
2023-03-22T05:02:58.706Z,10.5
2023-03-22T05:03:59.619Z,10.4
2023-03-22T05:05:00.576Z,10.4
2023-03-22T05:06:01.610Z,10.4
2023-03-22T05:07:02.659Z,10.3
2023-03-22T05:08:03.597Z,10.3
2023-03-22T05:09:04.601Z,10.3
2023-03-22T05:10:05.659Z,10.2
2023-03-22T05:11:06.723Z,10.3
2023-03-22T05:12:07.660Z,10.3
2023-03-22T05:13:08.581Z,10.4
2023-03-22T05:14:09.588Z,10.4
2023-03-22T05:15:10.645Z,10.4
2023-03-22T05:16:12.092Z,10.5
2023-03-22T05:17:13.602Z,10.4
2023-03-22T05:18:14.709Z,10.5
2023-03-22T05:19:15.620Z,10.4
2023-03-22T05:20:16.645Z,10.4
2023-03-22T05:21:17.641Z,10.4
2023-03-22T05:22:18.601Z,10.5
2023-03-22T05:23:19.580Z,10.5
2023-03-22T05:24:20.598Z,10.5
2023-03-22T05:25:21.610Z,10.5
2023-03-22T05:26:22.644Z,10.5
2023-03-22T05:27:23.678Z,10.5
2023-03-22T05:28:24.606Z,10.5
2023-03-22T05:29:25.699Z,10.5
2023-03-22T05:30:26.568Z,10.5
2023-03-22T05:31:27.622Z,10.5
2023-03-22T05:32:28.625Z,10.5
2023-03-22T05:33:29.641Z,10.5
2023-03-22T05:34:30.721Z,10.5
2023-03-22T05:35:31.629Z,10.5
2023-03-22T05:36:32.634Z,10.6
2023-03-22T05:37:33.701Z,10.5
2023-03-22T05:38:34.618Z,10.5
2023-03-22T05:39:35.719Z,10.5
2023-03-22T05:40:36.712Z,10.5
2023-03-22T05:41:37.648Z,10.5
2023-03-22T05:42:38.621Z,10.6
2023-03-22T05:43:39.617Z,10.5
2023-03-22T05:44:40.722Z,10.5
2023-03-22T05:45:41.657Z,10.5
2023-03-22T05:46:42.629Z,10.5
2023-03-22T05:47:43.706Z,10.5
2023-03-22T05:48:44.630Z,10.5
2023-03-22T05:49:45.696Z,10.5
2023-03-22T05:50:46.613Z,10.5
2023-03-22T05:51:47.644Z,10.5
2023-03-22T05:52:48.644Z,10.5
2023-03-22T05:53:49.625Z,10.6
2023-03-22T05:54:50.744Z,10.6
2023-03-22T05:55:51.609Z,10.5
2023-03-22T05:56:55.323Z,10.5
2023-03-22T05:57:53.645Z,10.5
2023-03-22T05:58:54.657Z,10.5
2023-03-22T05:59:55.684Z,10.6
2023-03-22T06:00:56.626Z,10.6
2023-03-22T06:01:57.632Z,10.7
2023-03-22T06:02:58.779Z,10.7
2023-03-22T06:03:59.825Z,10.7
2023-03-22T06:05:00.620Z,10.7
2023-03-22T06:06:01.639Z,10.8
2023-03-22T06:07:02.614Z,10.8
2023-03-22T06:08:03.639Z,10.9
2023-03-22T06:09:16.228Z,10.9
2023-03-22T06:10:05.650Z,11
2023-03-22T06:11:06.599Z,11
2023-03-22T06:12:07.645Z,11
2023-03-22T06:13:08.690Z,11
2023-03-22T06:14:09.652Z,11
2023-03-22T06:15:10.629Z,11.1
2023-03-22T06:16:11.759Z,11.1
2023-03-22T06:17:12.673Z,11.1
2023-03-22T06:18:13.635Z,11
2023-03-22T06:19:14.637Z,11
2023-03-22T06:20:15.677Z,11.1
2023-03-22T06:21:16.679Z,11.1
2023-03-22T06:22:17.672Z,11.1
2023-03-22T06:23:18.596Z,11.2
2023-03-22T06:24:19.613Z,11.2
2023-03-22T06:25:20.631Z,11.1
2023-03-22T06:26:21.655Z,11.1
2023-03-22T06:27:22.649Z,11.1
2023-03-22T06:28:23.609Z,11.3
2023-03-22T06:29:24.591Z,11.3
2023-03-22T06:30:25.695Z,11.3
2023-03-22T06:31:26.666Z,11.4
2023-03-22T06:32:27.686Z,11.5
2023-03-22T06:33:28.649Z,11.6
2023-03-22T06:34:29.652Z,11.7
2023-03-22T06:35:30.612Z,11.8
2023-03-22T06:36:31.608Z,11.8
2023-03-22T06:37:32.647Z,11.9
2023-03-22T06:38:33.650Z,11.9
2023-03-22T06:39:34.608Z,12
2023-03-22T06:40:35.613Z,12
2023-03-22T06:41:36.663Z,12.1
2023-03-22T06:42:37.649Z,12.2
2023-03-22T06:43:38.715Z,12.1
2023-03-22T06:44:39.651Z,12.2
2023-03-22T06:45:40.695Z,12.1
2023-03-22T06:46:41.642Z,12.2
2023-03-22T06:47:42.732Z,12.3
2023-03-22T06:48:43.598Z,12.2
2023-03-22T06:49:44.646Z,12.1
2023-03-22T06:50:45.918Z,12.1
2023-03-22T06:51:46.636Z,12.1
2023-03-22T06:52:47.669Z,12.1
2023-03-22T06:53:48.736Z,12.2
2023-03-22T06:54:49.646Z,12.2
2023-03-22T06:55:50.627Z,12.2
2023-03-22T06:56:51.621Z,12.2
2023-03-22T06:57:53.111Z,12.3
2023-03-22T06:58:53.642Z,12.3
2023-03-22T06:59:54.706Z,12.3
2023-03-22T07:00:55.656Z,12.3
2023-03-22T07:01:56.644Z,12.3
2023-03-22T07:02:57.640Z,12.3
2023-03-22T07:03:58.654Z,12.4
2023-03-22T07:04:59.640Z,12.4
2023-03-22T07:06:00.655Z,12.5
2023-03-22T07:07:01.650Z,12.5
2023-03-22T07:08:02.630Z,12.6
2023-03-22T07:09:03.659Z,12.6
2023-03-22T07:10:04.733Z,12.7
2023-03-22T07:11:05.637Z,12.7
2023-03-22T07:12:06.634Z,12.8
2023-03-22T07:13:07.667Z,12.8
2023-03-22T07:14:08.608Z,12.8
2023-03-22T07:15:09.705Z,12.8
2023-03-22T07:16:10.740Z,12.9
2023-03-22T07:17:11.639Z,12.9
2023-03-22T07:18:12.640Z,13
2023-03-22T07:19:13.626Z,13.1
2023-03-22T07:20:14.670Z,13.2
2023-03-22T07:21:15.701Z,13.2
2023-03-22T07:22:16.662Z,13.3
2023-03-22T07:23:17.665Z,13.4
2023-03-22T07:24:18.638Z,13.4
2023-03-22T07:25:19.703Z,13.4
2023-03-22T07:26:20.600Z,13.3
2023-03-22T07:27:21.685Z,13.3
2023-03-22T07:28:22.705Z,13.2
2023-03-22T07:29:23.708Z,13.3
2023-03-22T07:30:24.775Z,13.3
2023-03-22T07:31:25.698Z,13.3
2023-03-22T07:32:26.757Z,13.3
2023-03-22T07:33:27.689Z,13.3
2023-03-22T07:34:28.639Z,13.2
2023-03-22T07:35:29.736Z,13.1
2023-03-22T07:36:30.663Z,13.1
2023-03-22T07:37:31.724Z,13.2
2023-03-22T07:38:32.660Z,13.1
2023-03-22T07:39:33.654Z,13.1
2023-03-22T07:40:34.664Z,13.1
2023-03-22T07:41:35.708Z,13
2023-03-22T07:42:36.643Z,13
2023-03-22T07:43:50.986Z,12.9
2023-03-22T07:44:38.658Z,12.9
2023-03-22T07:45:39.706Z,12.9
2023-03-22T07:46:40.793Z,12.9
2023-03-22T07:47:41.738Z,12.8
2023-03-22T07:48:42.684Z,12.8
2023-03-22T07:49:43.669Z,12.8
2023-03-22T07:50:44.744Z,12.7
2023-03-22T07:51:45.712Z,12.7
2023-03-22T07:52:46.672Z,12.8
2023-03-22T07:53:47.705Z,12.8
2023-03-22T07:54:48.651Z,12.8
2023-03-22T07:55:49.691Z,12.7
2023-03-22T07:56:50.655Z,12.7
2023-03-22T07:57:51.710Z,12.8
2023-03-22T07:58:53.316Z,12.9
2023-03-22T07:59:54.678Z,12.9
2023-03-22T08:00:55.751Z,12.9
2023-03-22T08:01:56.715Z,13
2023-03-22T08:02:57.705Z,13.1
2023-03-22T08:03:58.762Z,13.2
2023-03-22T08:04:59.728Z,13.2
2023-03-22T08:06:00.886Z,13.1
2023-03-22T08:07:01.707Z,13.1
2023-03-22T08:08:02.715Z,13
2023-03-22T08:09:04.046Z,13.1
2023-03-22T08:10:04.783Z,13.1
2023-03-22T08:11:05.671Z,13.2
2023-03-22T08:12:06.750Z,13.3
2023-03-22T08:13:07.690Z,13.4
2023-03-22T08:14:08.709Z,13.4
2023-03-22T08:15:09.704Z,13.4
2023-03-22T08:16:10.787Z,13.4
2023-03-22T08:17:11.688Z,13.3
2023-03-22T08:18:12.674Z,13.3
2023-03-22T08:19:13.655Z,13.3
2023-03-22T08:20:14.689Z,13.2
2023-03-22T08:21:15.682Z,13.3
2023-03-22T08:22:16.732Z,13.3
2023-03-22T08:23:17.692Z,13.3
2023-03-22T08:24:18.714Z,13.3
2023-03-22T08:25:19.673Z,13.3
2023-03-22T08:26:20.688Z,13.4
2023-03-22T08:27:21.749Z,13.5
2023-03-22T08:28:22.680Z,13.5
2023-03-22T08:29:23.782Z,13.6
2023-03-22T08:30:24.688Z,13.6
2023-03-22T08:31:25.712Z,13.6
2023-03-22T08:32:26.688Z,13.7
2023-03-22T08:33:27.737Z,13.8
2023-03-22T08:34:28.718Z,13.9
2023-03-22T08:35:29.746Z,13.9
2023-03-22T08:36:30.677Z,14
2023-03-22T08:37:31.693Z,14
2023-03-22T08:38:32.688Z,14.1
2023-03-22T08:39:33.697Z,14.1
2023-03-22T08:40:34.790Z,14.1
2023-03-22T08:41:35.697Z,14.2
2023-03-22T08:42:36.686Z,14.2
2023-03-22T08:43:37.702Z,14
2023-03-22T08:44:38.729Z,13.9
2023-03-22T08:45:40.107Z,13.9
2023-03-22T08:46:41.687Z,13.9
2023-03-22T08:47:42.734Z,13.9
2023-03-22T08:48:43.688Z,14
2023-03-22T08:49:44.791Z,14
2023-03-22T08:50:45.712Z,14.1
2023-03-22T08:51:46.686Z,14.2
2023-03-22T08:52:47.728Z,14.1
2023-03-22T08:53:48.719Z,14.1
2023-03-22T08:54:49.715Z,14.2
2023-03-22T08:55:50.700Z,14
2023-03-22T08:56:51.682Z,14
2023-03-22T08:57:53.257Z,14.2
2023-03-22T08:58:54.719Z,14.3
2023-03-22T08:59:55.757Z,14.3
2023-03-22T09:00:56.783Z,14.4
2023-03-22T09:01:57.875Z,14.5
2023-03-22T09:02:58.704Z,14.5
2023-03-22T09:03:59.784Z,14.6
2023-03-22T09:05:00.698Z,14.7
2023-03-22T09:06:01.762Z,14.7
2023-03-22T09:07:02.725Z,14.8
2023-03-22T09:08:06.535Z,14.8
2023-03-22T09:09:04.725Z,14.8
2023-03-22T09:10:05.718Z,14.7
2023-03-22T09:11:06.711Z,14.6
2023-03-22T09:12:07.744Z,14.6
2023-03-22T09:13:08.705Z,14.7
2023-03-22T09:14:09.736Z,14.7
2023-03-22T09:15:10.801Z,14.7
2023-03-22T09:16:12.090Z,14.6
2023-03-22T09:17:12.792Z,14.7
2023-03-22T09:18:13.716Z,14.8
2023-03-22T09:19:14.748Z,14.9
2023-03-22T09:20:15.712Z,14.8
2023-03-22T09:21:16.753Z,14.8
2023-03-22T09:22:17.777Z,15
2023-03-22T09:23:18.740Z,15.1
2023-03-22T09:24:19.721Z,15.2
2023-03-22T09:25:20.747Z,15.2
2023-03-22T09:26:21.730Z,15.1
2023-03-22T09:27:22.749Z,14.7
2023-03-22T09:28:23.794Z,14.6
2023-03-22T09:29:24.719Z,14.5
2023-03-22T09:30:25.924Z,14.5
2023-03-22T09:31:26.796Z,14.7
2023-03-22T09:32:27.750Z,14.9
2023-03-22T09:33:28.725Z,15.1
2023-03-22T09:34:29.711Z,15.4
2023-03-22T09:35:30.795Z,15.5
2023-03-22T09:36:31.727Z,15.7
2023-03-22T09:37:32.759Z,15.7
2023-03-22T09:38:33.831Z,15.9
2023-03-22T09:39:34.722Z,16
2023-03-22T09:40:35.730Z,16.1
2023-03-22T09:41:36.731Z,16
2023-03-22T09:42:37.730Z,15.9
2023-03-22T09:43:38.720Z,15.9
2023-03-22T09:44:39.798Z,15.9
2023-03-22T09:45:40.977Z,15.9
2023-03-22T09:46:41.832Z,15.8
2023-03-22T09:47:44.933Z,15.9
2023-03-22T09:48:43.740Z,15.8
2023-03-22T09:49:53.277Z,15.8
2023-03-22T09:50:45.720Z,15.7
2023-03-22T09:51:46.709Z,15.8
2023-03-22T09:52:47.738Z,15.7
2023-03-22T09:53:48.799Z,15.7
2023-03-22T09:54:52.315Z,15.6
2023-03-22T09:55:50.760Z,15.6
2023-03-22T09:56:51.729Z,15.6
2023-03-22T09:57:52.790Z,15.6
2023-03-22T09:58:53.833Z,15.4
2023-03-22T09:59:54.726Z,15.4
2023-03-22T10:00:55.876Z,15.3
2023-03-22T10:01:57.066Z,15.3
2023-03-22T10:02:57.785Z,15.4
2023-03-22T10:03:58.845Z,15.4
2023-03-22T10:04:59.747Z,15.5
2023-03-22T10:06:00.747Z,15.7
2023-03-22T10:07:01.771Z,15.8
2023-03-22T10:08:02.820Z,15.9
2023-03-22T10:09:03.823Z,15.9
2023-03-22T10:10:04.760Z,16
2023-03-22T10:11:05.784Z,16
2023-03-22T10:12:06.781Z,16.2
2023-03-22T10:13:07.801Z,16.3
2023-03-22T10:14:08.762Z,16.4
2023-03-22T10:15:09.795Z,16.5
2023-03-22T10:16:10.812Z,16.6
2023-03-22T10:17:11.772Z,16.6
2023-03-22T10:18:12.780Z,16.6
2023-03-22T10:19:13.778Z,16.7
2023-03-22T10:20:14.779Z,16.7
2023-03-22T10:21:15.781Z,16.7
2023-03-22T10:22:16.808Z,16.9
2023-03-22T10:23:17.811Z,17.1
2023-03-22T10:24:18.739Z,17.3
2023-03-22T10:25:19.802Z,17.3
2023-03-22T10:26:20.760Z,17.4
2023-03-22T10:27:21.760Z,17.4
2023-03-22T10:28:22.769Z,17.5
2023-03-22T10:29:23.812Z,17.5
2023-03-22T10:30:25.100Z,17.3
2023-03-22T10:31:26.878Z,17.1
2023-03-22T10:32:27.761Z,16.9
2023-03-22T10:33:28.780Z,16.9
2023-03-22T10:34:29.780Z,16.7
2023-03-22T10:35:30.860Z,16.6
2023-03-22T10:36:31.790Z,16.6
2023-03-22T10:37:32.770Z,16.6
2023-03-22T10:38:33.769Z,16.7
2023-03-22T10:39:34.774Z,16.7
2023-03-22T10:40:35.754Z,16.7
2023-03-22T10:41:36.803Z,16.7
2023-03-22T10:42:37.751Z,16.7
2023-03-22T10:43:38.763Z,16.7
2023-03-22T10:44:39.740Z,16.7
2023-03-22T10:45:40.949Z,16.9
2023-03-22T10:46:41.910Z,16.9
2023-03-22T10:47:42.871Z,17
2023-03-22T10:48:43.769Z,17.1
2023-03-22T10:49:44.766Z,17
2023-03-22T10:50:45.757Z,16.9
2023-03-22T10:51:46.759Z,17
2023-03-22T10:52:47.775Z,17.1
2023-03-22T10:53:48.755Z,17.1
2023-03-22T10:54:49.773Z,16.9
2023-03-22T10:55:50.803Z,17
2023-03-22T10:56:51.783Z,17.1
2023-03-22T10:57:52.764Z,17
2023-03-22T10:58:53.773Z,17.1
2023-03-22T10:59:54.788Z,17.2
2023-03-22T11:00:55.875Z,17.5
2023-03-22T11:01:57.069Z,17.4
2023-03-22T11:02:57.800Z,17.3
2023-03-22T11:03:58.827Z,17.4
2023-03-22T11:04:59.848Z,17.4
2023-03-22T11:06:00.808Z,17.3
2023-03-22T11:07:01.787Z,17.3
2023-03-22T11:08:02.780Z,17.2
2023-03-22T11:09:03.797Z,17.1
2023-03-22T11:10:04.830Z,17.2
2023-03-22T11:11:05.789Z,17.2
2023-03-22T11:12:06.796Z,17.2
2023-03-22T11:13:07.786Z,17.2
2023-03-22T11:14:08.785Z,17.2
2023-03-22T11:15:09.807Z,17.2
2023-03-22T11:16:10.862Z,17.3
2023-03-22T11:17:11.806Z,17.4
2023-03-22T11:18:12.794Z,17.4
2023-03-22T11:19:13.803Z,17.4
2023-03-22T11:20:14.860Z,17.5
2023-03-22T11:21:15.858Z,17.6
2023-03-22T11:22:16.793Z,17.7
2023-03-22T11:23:17.803Z,17.8
2023-03-22T11:24:18.812Z,17.9
2023-03-22T11:25:19.761Z,17.8
2023-03-22T11:26:20.781Z,17.7
2023-03-22T11:27:21.767Z,17.7
2023-03-22T11:28:22.779Z,17.7
2023-03-22T11:29:23.781Z,17.8
2023-03-22T11:30:24.876Z,17.8
2023-03-22T11:31:25.942Z,17.9
2023-03-22T11:32:26.896Z,18
2023-03-22T11:33:27.817Z,17.9
2023-03-22T11:34:28.786Z,17.8
2023-03-22T11:35:29.821Z,17.7
2023-03-22T11:36:30.824Z,17.6
2023-03-22T11:37:31.795Z,17.4
2023-03-22T11:38:32.792Z,17.3
2023-03-22T11:39:33.831Z,17.3
2023-03-22T11:40:34.814Z,17.4
2023-03-22T11:41:35.820Z,17.4
2023-03-22T11:42:36.804Z,17.4
2023-03-22T11:43:37.799Z,17.4
2023-03-22T11:44:38.788Z,17.4
2023-03-22T11:45:39.836Z,17.3
2023-03-22T11:46:40.838Z,17.3
2023-03-22T11:47:41.908Z,17.3
2023-03-22T11:48:42.961Z,17.4
2023-03-22T11:49:43.853Z,17.5
2023-03-22T11:50:44.823Z,17.5
2023-03-22T11:51:45.785Z,17.3
2023-03-22T11:52:46.877Z,17.2
2023-03-22T11:53:47.773Z,17.2
2023-03-22T11:54:48.817Z,17.1
2023-03-22T11:55:49.842Z,17.1
2023-03-22T11:56:50.816Z,17.1
2023-03-22T11:57:51.949Z,17.2
2023-03-22T11:58:52.812Z,17.1
2023-03-22T11:59:53.829Z,17.1
2023-03-22T12:00:54.839Z,17
2023-03-22T12:01:55.801Z,17.1
2023-03-22T12:02:57.050Z,17.3
2023-03-22T12:03:57.953Z,17.3
2023-03-22T12:04:58.845Z,17.2
2023-03-22T12:05:59.872Z,17.1
2023-03-22T12:07:00.836Z,17.1
2023-03-22T12:08:01.863Z,17.1
2023-03-22T12:09:02.863Z,17.2
2023-03-22T12:10:03.829Z,17.4
2023-03-22T12:11:04.881Z,17.5
2023-03-22T12:12:05.847Z,17.5
2023-03-22T12:13:06.820Z,17.5
2023-03-22T12:14:07.799Z,17.5
2023-03-22T12:15:08.900Z,17.6
2023-03-22T12:16:09.898Z,17.7
2023-03-22T12:17:10.840Z,17.7
2023-03-22T12:18:11.849Z,17.7
2023-03-22T12:19:12.813Z,17.7
2023-03-22T12:20:13.856Z,17.7
2023-03-22T12:21:14.820Z,17.6
2023-03-22T12:22:15.841Z,17.3
2023-03-22T12:23:16.837Z,17.1
2023-03-22T12:24:17.855Z,17
2023-03-22T12:25:18.821Z,16.9
2023-03-22T12:26:19.840Z,16.9
2023-03-22T12:27:20.842Z,16.9
2023-03-22T12:28:21.980Z,17
2023-03-22T12:29:22.860Z,17.2
2023-03-22T12:30:23.829Z,17.4
2023-03-22T12:31:24.972Z,17.6
2023-03-22T12:32:25.887Z,17.7
2023-03-22T12:33:26.928Z,17.8
2023-03-22T12:34:27.826Z,17.9
2023-03-22T12:35:28.944Z,17.9
2023-03-22T12:36:29.937Z,18
2023-03-22T12:37:31.463Z,18
2023-03-22T12:38:31.940Z,18.1
2023-03-22T12:39:32.900Z,18.1
2023-03-22T12:40:33.916Z,18.1
2023-03-22T12:41:34.870Z,18.2
2023-03-22T12:42:40.428Z,18.1
2023-03-22T12:43:36.860Z,18.2
2023-03-22T12:44:37.857Z,18.4
2023-03-22T12:45:39.026Z,18.4
2023-03-22T12:46:39.919Z,18.4
2023-03-22T12:47:40.895Z,18.2
2023-03-22T12:48:43.038Z,18.1
2023-03-22T12:49:42.825Z,17.9
2023-03-22T12:50:43.843Z,17.9
2023-03-22T12:51:44.856Z,18
2023-03-22T12:52:46.155Z,17.9
2023-03-22T12:53:46.941Z,18
2023-03-22T12:54:47.904Z,18.1
2023-03-22T12:55:48.836Z,18.2
2023-03-22T12:56:49.839Z,18.3
2023-03-22T12:57:50.885Z,18.2
2023-03-22T12:58:51.930Z,18.2
2023-03-22T12:59:52.870Z,18.2
2023-03-22T13:00:53.988Z,18
2023-03-22T13:01:54.854Z,17.9
2023-03-22T13:02:56.002Z,18
2023-03-22T13:03:57.004Z,18.1
2023-03-22T13:04:57.895Z,18.1
2023-03-22T13:05:58.838Z,18.1
2023-03-22T13:06:59.824Z,18.1
2023-03-22T13:08:00.871Z,18
2023-03-22T13:09:01.881Z,18
2023-03-22T13:10:02.938Z,17.9
2023-03-22T13:11:03.925Z,17.9
2023-03-22T13:12:04.926Z,17.9
2023-03-22T13:13:05.904Z,17.9
2023-03-22T13:14:06.863Z,18
2023-03-22T13:15:07.881Z,18.1
2023-03-22T13:16:09.004Z,18.1
2023-03-22T13:17:09.891Z,18.3
2023-03-22T13:18:10.952Z,18.4
2023-03-22T13:19:11.929Z,18.5
2023-03-22T13:20:12.911Z,18.5
2023-03-22T13:21:13.870Z,18.5
2023-03-22T13:22:14.858Z,18.7
2023-03-22T13:23:15.894Z,18.7
2023-03-22T13:24:16.916Z,18.7
2023-03-22T13:25:17.904Z,18.7
2023-03-22T13:26:18.860Z,18.6
2023-03-22T13:27:19.921Z,18.6
2023-03-22T13:28:20.881Z,18.5
2023-03-22T13:29:21.960Z,18.3
2023-03-22T13:30:22.916Z,18.1
2023-03-22T13:31:23.880Z,18.1
2023-03-22T13:32:24.976Z,18.2
2023-03-22T13:33:25.842Z,18.1
2023-03-22T13:34:26.882Z,18.2
2023-03-22T13:35:28.027Z,18.2
2023-03-22T13:36:28.856Z,18.4
2023-03-22T13:37:29.839Z,18.6
2023-03-22T13:38:30.853Z,18.5